sensor_id;sensor_type;location;lat;lon;timestamp;pressure;altitude;pressure_sealevel;temperature;humidity
63006;BME280;53704;52.532;6.426;2024-03-02T00:01:03;100010.06;;;5.76;100.00
63006;BME280;53704;52.532;6.426;2024-03-02T00:03:29;100009.59;;;5.80;100.00
63006;BME280;53704;52.532;6.426;2024-03-02T00:05:54;100012.47;;;5.87;100.00
63006;BME280;53704;52.532;6.426;2024-03-02T00:08:25;100005.31;;;5.88;100.00
63006;BME280;53704;52.532;6.426;2024-03-02T00:10:57;100020.97;;;5.83;100.00
63006;BME280;53704;52.532;6.426;2024-03-02T00:13:23;100015.69;;;5.91;100.00
63006;BME280;53704;52.532;6.426;2024-03-02T00:15:53;100017.22;;;5.93;100.00
63006;BME280;53704;52.532;6.426;2024-03-02T00:18:32;100016.66;;;5.90;100.00
63006;BME280;53704;52.532;6.426;2024-03-02T00:20:59;100005.38;;;5.96;100.00
63006;BME280;53704;52.532;6.426;2024-03-02T00:23:31;100005.50;;;6.04;100.00
63006;BME280;53704;52.532;6.426;2024-03-02T00:25:58;100004.94;;;6.01;100.00
63006;BME280;53704;52.532;6.426;2024-03-02T00:28:30;100002.97;;;6.03;100.00
63006;BME280;53704;52.532;6.426;2024-03-02T00:33:33;99990.34;;;6.13;100.00
63006;BME280;53704;52.532;6.426;2024-03-02T00:35:59;99996.16;;;6.08;100.00
63006;BME280;53704;52.532;6.426;2024-03-02T00:38:26;99989.00;;;6.09;100.00
63006;BME280;53704;52.532;6.426;2024-03-02T00:40:52;99986.22;;;6.19;100.00
63006;BME280;53704;52.532;6.426;2024-03-02T00:46:04;99973.00;;;6.17;100.00
63006;BME280;53704;52.532;6.426;2024-03-02T00:48:30;99971.69;;;6.21;100.00
63006;BME280;53704;52.532;6.426;2024-03-02T00:50:56;99968.03;;;6.22;100.00
63006;BME280;53704;52.532;6.426;2024-03-02T00:53:23;99982.94;;;6.25;100.00
63006;BME280;53704;52.532;6.426;2024-03-02T00:55:51;99974.22;;;6.23;100.00
63006;BME280;53704;52.532;6.426;2024-03-02T00:58:16;99984.28;;;6.29;100.00
63006;BME280;53704;52.532;6.426;2024-03-02T01:00:42;99978.88;;;6.21;100.00
63006;BME280;53704;52.532;6.426;2024-03-02T01:03:07;99975.91;;;6.24;100.00
63006;BME280;53704;52.532;6.426;2024-03-02T01:05:33;99975.22;;;6.22;100.00
63006;BME280;53704;52.532;6.426;2024-03-02T01:07:58;99973.69;;;6.19;100.00
63006;BME280;53704;52.532;6.426;2024-03-02T01:10:23;99972.84;;;6.19;100.00
63006;BME280;53704;52.532;6.426;2024-03-02T01:12:51;99975.75;;;6.25;100.00
63006;BME280;53704;52.532;6.426;2024-03-02T01:15:17;99970.56;;;6.24;100.00
63006;BME280;53704;52.532;6.426;2024-03-02T01:17:42;99967.88;;;6.24;100.00
63006;BME280;53704;52.532;6.426;2024-03-02T01:20:08;99970.56;;;6.24;100.00
63006;BME280;53704;52.532;6.426;2024-03-02T01:22:35;99960.38;;;6.27;100.00
63006;BME280;53704;52.532;6.426;2024-03-02T01:25:01;99965.19;;;6.24;100.00
63006;BME280;53704;52.532;6.426;2024-03-02T01:27:26;99966.25;;;6.31;100.00
63006;BME280;53704;52.532;6.426;2024-03-02T01:29:52;99955.03;;;6.27;100.00
63006;BME280;53704;52.532;6.426;2024-03-02T01:32:17;99963.81;;;6.20;100.00
63006;BME280;53704;52.532;6.426;2024-03-02T01:34:43;99965.50;;;6.21;100.00
63006;BME280;53704;52.532;6.426;2024-03-02T01:37:08;99963.91;;;6.28;100.00
63006;BME280;53704;52.532;6.426;2024-03-02T01:39:35;99975.44;;;6.28;100.00
63006;BME280;53704;52.532;6.426;2024-03-02T01:42:01;99972.44;;;6.31;100.00
63006;BME280;53704;52.532;6.426;2024-03-02T01:44:26;99964.25;;;6.33;100.00
63006;BME280;53704;52.532;6.426;2024-03-02T01:46:52;99962.72;;;6.30;100.00
63006;BME280;53704;52.532;6.426;2024-03-02T01:49:18;99969.75;;;6.31;100.00
63006;BME280;53704;52.532;6.426;2024-03-02T01:51:44;99969.28;;;6.36;100.00
63006;BME280;53704;52.532;6.426;2024-03-02T01:54:09;99969.59;;;6.33;100.00
63006;BME280;53704;52.532;6.426;2024-03-02T01:56:35;99969.13;;;6.38;100.00
63006;BME280;53704;52.532;6.426;2024-03-02T01:59:00;99964.78;;;6.37;100.00
63006;BME280;53704;52.532;6.426;2024-03-02T02:01:26;99972.47;;;6.40;100.00
63006;BME280;53704;52.532;6.426;2024-03-02T02:03:52;99974.50;;;6.38;100.00
63006;BME280;53704;52.532;6.426;2024-03-02T02:06:17;99974.69;;;6.44;100.00
63006;BME280;53704;52.532;6.426;2024-03-02T02:08:43;99975.34;;;6.46;100.00
63006;BME280;53704;52.532;6.426;2024-03-02T02:11:08;99974.69;;;6.44;100.00
63006;BME280;53704;52.532;6.426;2024-03-02T02:13:34;99966.88;;;6.51;100.00
63006;BME280;53704;52.532;6.426;2024-03-02T02:16:08;99982.72;;;6.44;100.00
63006;BME280;53704;52.532;6.426;2024-03-02T02:18:34;99972.84;;;6.45;100.00
63006;BME280;53704;52.532;6.426;2024-03-02T02:21:01;99970.63;;;6.40;100.00
63006;BME280;53704;52.532;6.426;2024-03-02T02:23:26;99976.06;;;6.48;100.00
63006;BME280;53704;52.532;6.426;2024-03-02T02:25:51;99972.53;;;6.48;100.00
63006;BME280;53704;52.532;6.426;2024-03-02T02:28:17;99970.47;;;6.42;100.00
63006;BME280;53704;52.532;6.426;2024-03-02T02:30:42;99976.72;;;6.50;100.00
63006;BME280;53704;52.532;6.426;2024-03-02T02:33:08;99975.25;;;6.56;100.00
63006;BME280;53704;52.532;6.426;2024-03-02T02:35:34;99974.59;;;6.62;100.00
63006;BME280;53704;52.532;6.426;2024-03-02T02:38:00;99979.75;;;6.56;100.00
63006;BME280;53704;52.532;6.426;2024-03-02T02:40:26;99975.78;;;6.60;100.00
63006;BME280;53704;52.532;6.426;2024-03-02T02:42:51;99982.78;;;6.61;100.00
63006;BME280;53704;52.532;6.426;2024-03-02T02:45:17;99982.47;;;6.64;100.00
63006;BME280;53704;52.532;6.426;2024-03-02T02:47:43;99979.44;;;6.59;100.00
63006;BME280;53704;52.532;6.426;2024-03-02T02:50:09;99971.78;;;6.64;100.00
63006;BME280;53704;52.532;6.426;2024-03-02T02:52:36;99966.09;;;6.67;100.00
63006;BME280;53704;52.532;6.426;2024-03-02T02:55:03;99965.59;;;6.63;100.00
63006;BME280;53704;52.532;6.426;2024-03-02T02:57:29;99960.91;;;6.65;100.00
63006;BME280;53704;52.532;6.426;2024-03-02T02:59:56;99960.97;;;6.74;100.00
63006;BME280;53704;52.532;6.426;2024-03-02T03:02:22;99959.78;;;6.68;100.00
63006;BME280;53704;52.532;6.426;2024-03-02T03:04:47;99962.63;;;6.75;100.00
63006;BME280;53704;52.532;6.426;2024-03-02T03:07:13;99953.16;;;6.80;100.00
63006;BME280;53704;52.532;6.426;2024-03-02T03:09:38;99943.25;;;6.73;100.00
63006;BME280;53704;52.532;6.426;2024-03-02T03:12:04;99939.41;;;6.75;100.00
63006;BME280;53704;52.532;6.426;2024-03-02T03:14:29;99941.28;;;6.83;100.00
63006;BME280;53704;52.532;6.426;2024-03-02T03:16:55;99941.44;;;6.81;100.00
63006;BME280;53704;52.532;6.426;2024-03-02T03:19:20;99939.06;;;6.78;100.00
63006;BME280;53704;52.532;6.426;2024-03-02T03:21:46;99946.63;;;6.83;100.00
63006;BME280;53704;52.532;6.426;2024-03-02T03:24:12;99946.63;;;6.83;100.00
63006;BME280;53704;52.532;6.426;2024-03-02T03:26:37;99938.47;;;6.93;100.00
63006;BME280;53704;52.532;6.426;2024-03-02T03:29:02;99942.44;;;6.80;100.00
63006;BME280;53704;52.532;6.426;2024-03-02T03:31:29;99940.91;;;6.69;100.00
63006;BME280;53704;52.532;6.426;2024-03-02T03:33:54;99943.91;;;6.75;100.00
63006;BME280;53704;52.532;6.426;2024-03-02T03:36:20;99946.94;;;6.80;100.00
63006;BME280;53704;52.532;6.426;2024-03-02T03:38:45;99942.13;;;6.83;100.00
63006;BME280;53704;52.532;6.426;2024-03-02T03:41:11;99944.59;;;6.77;100.00
63006;BME280;53704;52.532;6.426;2024-03-02T03:43:36;99945.16;;;6.88;100.00
63006;BME280;53704;52.532;6.426;2024-03-02T03:46:01;99943.63;;;6.86;100.00
63006;BME280;53704;52.532;6.426;2024-03-02T03:48:27;99942.50;;;6.97;100.00
63006;BME280;53704;52.532;6.426;2024-03-02T03:50:56;99948.84;;;6.96;100.00
63006;BME280;53704;52.532;6.426;2024-03-02T03:53:21;99959.38;;;6.97;100.00
63006;BME280;53704;52.532;6.426;2024-03-02T03:55:47;99958.22;;;7.00;100.00
63006;BME280;53704;52.532;6.426;2024-03-02T03:58:14;99954.91;;;7.06;100.00
63006;BME280;53704;52.532;6.426;2024-03-02T04:00:42;99956.91;;;7.04;100.00
63006;BME280;53704;52.532;6.426;2024-03-02T04:03:07;99969.44;;;7.03;100.00
63006;BME280;53704;52.532;6.426;2024-03-02T04:05:33;99969.13;;;7.06;100.00
63006;BME280;53704;52.532;6.426;2024-03-02T04:07:58;99968.28;;;7.06;100.00
63006;BME280;53704;52.532;6.426;2024-03-02T04:10:24;99965.59;;;7.06;100.00
63006;BME280;53704;52.532;6.426;2024-03-02T04:12:49;99971.63;;;7.08;100.00
63006;BME280;53704;52.532;6.426;2024-03-02T04:15:15;99970.63;;;7.09;100.00
63006;BME280;53704;52.532;6.426;2024-03-02T04:17:41;99967.63;;;7.04;100.00
63006;BME280;53704;52.532;6.426;2024-03-02T04:20:07;99981.03;;;7.12;100.00
63006;BME280;53704;52.532;6.426;2024-03-02T04:22:33;99984.00;;;7.01;100.00
63006;BME280;53704;52.532;6.426;2024-03-02T04:24:59;99983.84;;;7.02;100.00
63006;BME280;53704;52.532;6.426;2024-03-02T04:27:25;99994.72;;;7.09;100.00
63006;BME280;53704;52.532;6.426;2024-03-02T04:29:51;99995.06;;;7.06;100.00
63006;BME280;53704;52.532;6.426;2024-03-02T04:32:16;99992.38;;;7.06;100.00
63006;BME280;53704;52.532;6.426;2024-03-02T04:34:42;100001.53;;;6.95;100.00
63006;BME280;53704;52.532;6.426;2024-03-02T04:37:08;99998.22;;;7.01;100.00
63006;BME280;53704;52.532;6.426;2024-03-02T04:39:35;99994.06;;;7.07;100.00
63006;BME280;53704;52.532;6.426;2024-03-02T04:42:00;99998.38;;;7.00;100.00
63006;BME280;53704;52.532;6.426;2024-03-02T04:44:26;99990.31;;;6.92;100.00
63006;BME280;53704;52.532;6.426;2024-03-02T04:46:51;99999.00;;;6.94;100.00
63006;BME280;53704;52.532;6.426;2024-03-02T04:49:17;99994.69;;;6.93;100.00
63006;BME280;53704;52.532;6.426;2024-03-02T04:51:42;99998.66;;;6.88;100.00
63006;BME280;53704;52.532;6.426;2024-03-02T04:54:08;99996.47;;;6.84;100.00
63006;BME280;53704;52.532;6.426;2024-03-02T04:56:33;100013.97;;;6.78;100.00
63006;BME280;53704;52.532;6.426;2024-03-02T04:59:10;100034.91;;;6.83;100.00
63006;BME280;53704;52.532;6.426;2024-03-02T05:01:35;100039.91;;;6.78;100.00
63006;BME280;53704;52.532;6.426;2024-03-02T05:04:01;100031.13;;;6.94;100.00
63006;BME280;53704;52.532;6.426;2024-03-02T05:06:26;100019.88;;;6.82;100.00
63006;BME280;53704;52.532;6.426;2024-03-02T05:08:52;100021.34;;;6.76;100.00
63006;BME280;53704;52.532;6.426;2024-03-02T05:11:17;100024.63;;;6.70;100.00
63006;BME280;53704;52.532;6.426;2024-03-02T05:14:14;100027.66;;;6.75;100.00
63006;BME280;53704;52.532;6.426;2024-03-02T05:16:40;100036.75;;;6.56;100.00
63006;BME280;53704;52.532;6.426;2024-03-02T05:19:07;100037.19;;;6.69;100.00
63006;BME280;53704;52.532;6.426;2024-03-02T05:21:33;100038.94;;;6.61;100.00
63006;BME280;53704;52.532;6.426;2024-03-02T05:23:59;100047.56;;;6.73;100.00
63006;BME280;53704;52.532;6.426;2024-03-02T05:26:24;100057.69;;;6.61;100.00
63006;BME280;53704;52.532;6.426;2024-03-02T05:28:50;100057.16;;;6.57;100.00
63006;BME280;53704;52.532;6.426;2024-03-02T05:31:16;100055.56;;;6.46;100.00
63006;BME280;53704;52.532;6.426;2024-03-02T05:33:42;100064.41;;;6.21;100.00
63006;BME280;53704;52.532;6.426;2024-03-02T05:36:08;100055.66;;;6.10;100.00
63006;BME280;53704;52.532;6.426;2024-03-02T05:38:37;100061.22;;;6.17;100.00
63006;BME280;53704;52.532;6.426;2024-03-02T05:41:03;100061.91;;;6.01;100.00
63006;BME280;53704;52.532;6.426;2024-03-02T05:43:28;100071.28;;;6.05;100.00
63006;BME280;53704;52.532;6.426;2024-03-02T05:45:54;100070.38;;;5.96;100.00
63006;BME280;53704;52.532;6.426;2024-03-02T05:48:19;100074.25;;;6.02;100.00
63006;BME280;53704;52.532;6.426;2024-03-02T05:50:45;100074.31;;;5.92;100.00
63006;BME280;53704;52.532;6.426;2024-03-02T05:53:10;100077.66;;;5.94;100.00
63006;BME280;53704;52.532;6.426;2024-03-02T05:55:35;100074.91;;;5.86;100.00
63006;BME280;53704;52.532;6.426;2024-03-02T05:58:01;100076.81;;;5.94;100.00
63006;BME280;53704;52.532;6.426;2024-03-02T06:00:32;100077.19;;;5.81;100.00
63006;BME280;53704;52.532;6.426;2024-03-02T06:02:58;100070.63;;;5.75;100.00
63006;BME280;53704;52.532;6.426;2024-03-02T06:05:24;100071.56;;;5.84;100.00
63006;BME280;53704;52.532;6.426;2024-03-02T06:07:50;100073.47;;;5.92;100.00
63006;BME280;53704;52.532;6.426;2024-03-02T06:10:15;100064.28;;;5.76;100.00
63006;BME280;53704;52.532;6.426;2024-03-02T06:12:41;100067.91;;;5.85;100.00
63006;BME280;53704;52.532;6.426;2024-03-02T06:15:07;100083.66;;;5.78;100.00
63006;BME280;53704;52.532;6.426;2024-03-02T06:17:35;100082.63;;;5.71;100.00
63006;BME280;53704;52.532;6.426;2024-03-02T06:20:01;100073.84;;;5.79;100.00
63006;BME280;53704;52.532;6.426;2024-03-02T06:22:26;100091.75;;;5.69;100.00
63006;BME280;53704;52.532;6.426;2024-03-02T06:24:51;100091.53;;;5.80;100.00
63006;BME280;53704;52.532;6.426;2024-03-02T06:27:17;100096.44;;;5.85;100.00
63006;BME280;53704;52.532;6.426;2024-03-02T06:29:42;100093.81;;;5.75;100.00
63006;BME280;53704;52.532;6.426;2024-03-02T06:32:08;100094.72;;;5.66;100.00
63006;BME280;53704;52.532;6.426;2024-03-02T06:34:33;100101.59;;;5.68;100.00
63006;BME280;53704;52.532;6.426;2024-03-02T06:36:58;100101.47;;;5.70;100.00
63006;BME280;53704;52.532;6.426;2024-03-02T06:39:24;100103.75;;;5.65;100.00
63006;BME280;53704;52.532;6.426;2024-03-02T06:41:51;100107.38;;;5.64;100.00
63006;BME280;53704;52.532;6.426;2024-03-02T06:44:16;100098.84;;;5.60;100.00
63006;BME280;53704;52.532;6.426;2024-03-02T06:46:42;100109.88;;;5.47;100.00
63006;BME280;53704;52.532;6.426;2024-03-02T06:49:07;100108.38;;;5.62;100.00
63006;BME280;53704;52.532;6.426;2024-03-02T06:51:33;100115.31;;;5.55;100.00
63006;BME280;53704;52.532;6.426;2024-03-02T06:53:59;100120.59;;;5.65;100.00
63006;BME280;53704;52.532;6.426;2024-03-02T06:56:24;100110.66;;;5.57;100.00
63006;BME280;53704;52.532;6.426;2024-03-02T06:58:50;100112.13;;;5.70;100.00
63006;BME280;53704;52.532;6.426;2024-03-02T07:01:15;100116.53;;;5.61;100.00
63006;BME280;53704;52.532;6.426;2024-03-02T07:03:41;100116.28;;;5.54;100.00
63006;BME280;53704;52.532;6.426;2024-03-02T07:06:06;100116.75;;;5.50;100.00
63006;BME280;53704;52.532;6.426;2024-03-02T07:08:31;100119.31;;;5.41;100.00
63006;BME280;53704;52.532;6.426;2024-03-02T07:10:57;100116.75;;;5.50;100.00
63006;BME280;53704;52.532;6.426;2024-03-02T07:13:22;100122.41;;;5.37;100.00
63006;BME280;53704;52.532;6.426;2024-03-02T07:15:48;100132.81;;;5.40;100.00
63006;BME280;53704;52.532;6.426;2024-03-02T07:18:33;100120.09;;;5.52;100.00
63006;BME280;53704;52.532;6.426;2024-03-02T07:21:00;100117.84;;;5.57;100.00
63006;BME280;53704;52.532;6.426;2024-03-02T07:23:29;100121.63;;;5.54;100.00
63006;BME280;53704;52.532;6.426;2024-03-02T07:25:55;100129.94;;;5.51;100.00
63006;BME280;53704;52.532;6.426;2024-03-02T07:28:22;100132.16;;;5.56;100.00
63006;BME280;53704;52.532;6.426;2024-03-02T07:30:58;100140.75;;;5.50;100.00
63006;BME280;53704;52.532;6.426;2024-03-02T07:33:24;100152.84;;;5.54;100.00
63006;BME280;53704;52.532;6.426;2024-03-02T07:35:49;100158.19;;;5.54;100.00
63006;BME280;53704;52.532;6.426;2024-03-02T07:38:14;100164.31;;;5.64;100.00
63006;BME280;53704;52.532;6.426;2024-03-02T07:40:40;100159.69;;;5.66;100.00
63006;BME280;53704;52.532;6.426;2024-03-02T07:43:05;100160.75;;;5.73;100.00
63006;BME280;53704;52.532;6.426;2024-03-02T07:45:31;100167.94;;;5.73;100.00
63006;BME280;53704;52.532;6.426;2024-03-02T07:47:56;100168.47;;;5.76;100.00
63006;BME280;53704;52.532;6.426;2024-03-02T07:50:22;100166.78;;;5.75;100.00
63006;BME280;53704;52.532;6.426;2024-03-02T07:52:48;100171.44;;;5.73;100.00
63006;BME280;53704;52.532;6.426;2024-03-02T07:55:13;100170.44;;;5.74;100.00
63006;BME280;53704;52.532;6.426;2024-03-02T07:57:39;100171.81;;;5.78;100.00
63006;BME280;53704;52.532;6.426;2024-03-02T08:00:06;100165.44;;;5.89;100.00
63006;BME280;53704;52.532;6.426;2024-03-02T08:02:31;100173.31;;;5.91;100.00
63006;BME280;53704;52.532;6.426;2024-03-02T08:04:56;100185.53;;;5.93;100.00
63006;BME280;53704;52.532;6.426;2024-03-02T08:07:22;100196.47;;;6.00;100.00
63006;BME280;53704;52.532;6.426;2024-03-02T08:09:47;100191.13;;;6.00;100.00
63006;BME280;53704;52.532;6.426;2024-03-02T08:12:13;100194.50;;;6.02;100.00
63006;BME280;53704;52.532;6.426;2024-03-02T08:14:38;100199.69;;;6.04;100.00
63006;BME280;53704;52.532;6.426;2024-03-02T08:17:04;100191.53;;;6.05;100.00
63006;BME280;53704;52.532;6.426;2024-03-02T08:19:35;100191.22;;;6.08;100.00
63006;BME280;53704;52.532;6.426;2024-03-02T08:22:01;100196.28;;;6.11;100.00
63006;BME280;53704;52.532;6.426;2024-03-02T08:24:26;100201.00;;;6.18;100.00
63006;BME280;53704;52.532;6.426;2024-03-02T08:26:52;100198.88;;;6.21;100.00
63006;BME280;53704;52.532;6.426;2024-03-02T08:29:17;100195.06;;;6.24;100.00
63006;BME280;53704;52.532;6.426;2024-03-02T08:31:43;100189.34;;;6.19;100.00
63006;BME280;53704;52.532;6.426;2024-03-02T08:34:08;100196.69;;;6.34;100.00
63006;BME280;53704;52.532;6.426;2024-03-02T08:36:34;100202.25;;;6.41;100.00
63006;BME280;53704;52.532;6.426;2024-03-02T08:38:59;100209.75;;;6.56;100.00
63006;BME280;53704;52.532;6.426;2024-03-02T08:41:25;100212.72;;;6.52;100.00
63006;BME280;53704;52.532;6.426;2024-03-02T08:43:50;100212.13;;;6.59;100.00
63006;BME280;53704;52.532;6.426;2024-03-02T08:46:16;100207.84;;;6.66;100.00
63006;BME280;53704;52.532;6.426;2024-03-02T08:48:41;100210.06;;;6.70;100.00
63006;BME280;53704;52.532;6.426;2024-03-02T08:51:07;100203.91;;;6.78;100.00
63006;BME280;53704;52.532;6.426;2024-03-02T08:53:35;100204.84;;;6.87;100.00
63006;BME280;53704;52.532;6.426;2024-03-02T08:56:00;100202.75;;;6.99;100.00
63006;BME280;53704;52.532;6.426;2024-03-02T08:58:26;100207.16;;;7.08;100.00
63006;BME280;53704;52.532;6.426;2024-03-02T09:00:51;100210.59;;;7.18;100.00
63006;BME280;53704;52.532;6.426;2024-03-02T09:03:17;100201.38;;;7.21;100.00
63006;BME280;53704;52.532;6.426;2024-03-02T09:05:42;100203.50;;;7.35;100.00
63006;BME280;53704;52.532;6.426;2024-03-02T09:08:08;100211.03;;;7.40;100.00
63006;BME280;53704;52.532;6.426;2024-03-02T09:10:33;100216.47;;;7.48;100.00
63006;BME280;53704;52.532;6.426;2024-03-02T09:12:59;100217.78;;;7.44;100.00
63006;BME280;53704;52.532;6.426;2024-03-02T09:15:24;100220.47;;;7.44;100.00
63006;BME280;53704;52.532;6.426;2024-03-02T09:17:50;100218.13;;;7.49;100.00
63006;BME280;53704;52.532;6.426;2024-03-02T09:20:15;100218.75;;;7.43;100.00
63006;BME280;53704;52.532;6.426;2024-03-02T09:22:42;100221.91;;;7.38;100.00
63006;BME280;53704;52.532;6.426;2024-03-02T09:25:07;100228.00;;;7.49;100.00
63006;BME280;53704;52.532;6.426;2024-03-02T09:27:36;100225.84;;;7.52;100.00
63006;BME280;53704;52.532;6.426;2024-03-02T09:30:04;100221.59;;;7.68;100.00
63006;BME280;53704;52.532;6.426;2024-03-02T09:32:30;100222.56;;;7.67;100.00
63006;BME280;53704;52.532;6.426;2024-03-02T09:34:56;100222.66;;;7.75;100.00
63006;BME280;53704;52.532;6.426;2024-03-02T09:37:21;100219.41;;;7.71;100.00
63006;BME280;53704;52.532;6.426;2024-03-02T09:39:46;100214.75;;;7.73;100.00
63006;BME280;53704;52.532;6.426;2024-03-02T09:42:12;100215.47;;;7.84;100.00
63006;BME280;53704;52.532;6.426;2024-03-02T09:44:38;100217.81;;;7.87;100.00
63006;BME280;53704;52.532;6.426;2024-03-02T09:47:04;100211.81;;;7.93;100.00
63006;BME280;53704;52.532;6.426;2024-03-02T09:49:31;100213.66;;;7.92;100.00
63006;BME280;53704;52.532;6.426;2024-03-02T09:51:56;100219.03;;;7.92;100.00
63006;BME280;53704;52.532;6.426;2024-03-02T09:54:22;100219.50;;;7.88;100.00
63006;BME280;53704;52.532;6.426;2024-03-02T09:56:47;100218.72;;;8.04;100.00
63006;BME280;53704;52.532;6.426;2024-03-02T09:59:13;100216.97;;;8.29;100.00
63006;BME280;53704;52.532;6.426;2024-03-02T10:01:55;100215.28;;;8.36;100.00
63006;BME280;53704;52.532;6.426;2024-03-02T10:04:21;100212.69;;;8.61;100.00
63006;BME280;53704;52.532;6.426;2024-03-02T10:06:47;100214.53;;;8.68;100.00
63006;BME280;53704;52.532;6.426;2024-03-02T10:09:26;100205.66;;;8.76;100.00
63006;BME280;53704;52.532;6.426;2024-03-02T10:11:52;100214.88;;;8.82;100.00
63006;BME280;53704;52.532;6.426;2024-03-02T10:14:18;100217.38;;;8.83;100.00
63006;BME280;53704;52.532;6.426;2024-03-02T10:16:44;100220.56;;;8.87;100.00
63006;BME280;53704;52.532;6.426;2024-03-02T10:19:25;100219.56;;;8.96;100.00
63006;BME280;53704;52.532;6.426;2024-03-02T10:21:53;100221.06;;;9.07;100.00
63006;BME280;53704;52.532;6.426;2024-03-02T10:24:20;100207.16;;;9.12;100.00
63006;BME280;53704;52.532;6.426;2024-03-02T10:26:47;100210.66;;;9.29;100.00
63006;BME280;53704;52.532;6.426;2024-03-02T10:29:13;100204.63;;;9.18;100.00
63006;BME280;53704;52.532;6.426;2024-03-02T10:31:39;100207.63;;;9.32;100.00
63006;BME280;53704;52.532;6.426;2024-03-02T10:34:07;100208.97;;;9.28;100.00
63006;BME280;53704;52.532;6.426;2024-03-02T10:36:36;100206.44;;;9.43;100.00
63006;BME280;53704;52.532;6.426;2024-03-02T10:39:03;100207.56;;;9.56;100.00
63006;BME280;53704;52.532;6.426;2024-03-02T10:41:32;100202.53;;;9.62;100.00
63006;BME280;53704;52.532;6.426;2024-03-02T10:43:59;100207.72;;;9.63;100.00
63006;BME280;53704;52.532;6.426;2024-03-02T10:46:28;100193.22;;;9.72;100.00
63006;BME280;53704;52.532;6.426;2024-03-02T10:48:55;100198.94;;;9.77;100.00
63006;BME280;53704;52.532;6.426;2024-03-02T10:51:24;100199.91;;;9.85;100.00
63006;BME280;53704;52.532;6.426;2024-03-02T10:53:49;100197.16;;;9.93;100.00
63006;BME280;53704;52.532;6.426;2024-03-02T10:56:22;100202.44;;;10.18;100.00
63006;BME280;53704;52.532;6.426;2024-03-02T10:58:58;100204.41;;;10.24;100.00
63006;BME280;53704;52.532;6.426;2024-03-02T11:01:26;100195.69;;;10.22;100.00
63006;BME280;53704;52.532;6.426;2024-03-02T11:03:54;100204.16;;;10.10;100.00
63006;BME280;53704;52.532;6.426;2024-03-02T11:06:21;100200.84;;;10.31;100.00
63006;BME280;53704;52.532;6.426;2024-03-02T11:08:48;100193.94;;;10.37;100.00
63006;BME280;53704;52.532;6.426;2024-03-02T11:11:18;100201.09;;;10.53;100.00
63006;BME280;53704;52.532;6.426;2024-03-02T11:13:49;100196.25;;;10.48;100.00
63006;BME280;53704;52.532;6.426;2024-03-02T11:16:31;100190.19;;;10.46;100.00
63006;BME280;53704;52.532;6.426;2024-03-02T11:19:05;100193.03;;;10.45;100.00
63006;BME280;53704;52.532;6.426;2024-03-02T11:21:36;100189.22;;;10.85;100.00
63006;BME280;53704;52.532;6.426;2024-03-02T11:26:50;100185.88;;;10.83;100.00
63006;BME280;53704;52.532;6.426;2024-03-02T11:29:53;100187.81;;;11.28;100.00
63006;BME280;53704;52.532;6.426;2024-03-02T11:32:22;100184.84;;;11.37;100.00
63006;BME280;53704;52.532;6.426;2024-03-02T11:34:51;100182.34;;;11.36;100.00
63006;BME280;53704;52.532;6.426;2024-03-02T11:37:20;100189.59;;;11.50;100.00
63006;BME280;53704;52.532;6.426;2024-03-02T11:39:48;100185.50;;;11.39;100.00
63006;BME280;53704;52.532;6.426;2024-03-02T11:42:15;100176.88;;;11.29;100.00
63006;BME280;53704;52.532;6.426;2024-03-02T11:44:43;100179.91;;;11.41;100.00
63006;BME280;53704;52.532;6.426;2024-03-02T11:47:12;100175.09;;;11.51;100.00
63006;BME280;53704;52.532;6.426;2024-03-02T11:49:42;100186.25;;;11.63;100.00
63006;BME280;53704;52.532;6.426;2024-03-02T11:52:09;100182.44;;;11.57;100.00
63006;BME280;53704;52.532;6.426;2024-03-02T11:54:40;100182.16;;;11.67;100.00
63006;BME280;53704;52.532;6.426;2024-03-02T11:57:06;100180.47;;;11.81;100.00
63006;BME280;53704;52.532;6.426;2024-03-02T11:59:32;100177.69;;;11.74;100.00
63006;BME280;53704;52.532;6.426;2024-03-02T12:01:59;100176.28;;;11.93;100.00
63006;BME280;53704;52.532;6.426;2024-03-02T12:04:25;100179.16;;;12.07;100.00
63006;BME280;53704;52.532;6.426;2024-03-02T12:06:55;100176.19;;;12.02;100.00
63006;BME280;53704;52.532;6.426;2024-03-02T12:09:21;100162.09;;;12.21;100.00
63006;BME280;53704;52.532;6.426;2024-03-02T12:11:48;100166.38;;;12.16;100.00
63006;BME280;53704;52.532;6.426;2024-03-02T12:14:13;100158.09;;;12.17;100.00
63006;BME280;53704;52.532;6.426;2024-03-02T12:16:39;100153.25;;;12.27;100.00
63006;BME280;53704;52.532;6.426;2024-03-02T12:19:11;100143.97;;;12.58;100.00
63006;BME280;53704;52.532;6.426;2024-03-02T12:21:37;100158.63;;;12.49;100.00
63006;BME280;53704;52.532;6.426;2024-03-02T12:24:03;100162.19;;;12.49;100.00
63006;BME280;53704;52.532;6.426;2024-03-02T12:26:29;100162.03;;;12.58;100.00
63006;BME280;53704;52.532;6.426;2024-03-02T12:28:54;100158.81;;;12.69;100.00
63006;BME280;53704;52.532;6.426;2024-03-02T12:31:20;100152.56;;;12.90;100.00
63006;BME280;53704;52.532;6.426;2024-03-02T12:33:46;100153.06;;;13.00;100.00
63006;BME280;53704;52.532;6.426;2024-03-02T12:36:13;100145.09;;;12.92;100.00
63006;BME280;53704;52.532;6.426;2024-03-02T12:38:43;100150.84;;;12.82;100.00
63006;BME280;53704;52.532;6.426;2024-03-02T12:41:09;100153.13;;;13.14;100.00
63006;BME280;53704;52.532;6.426;2024-03-02T12:43:35;100145.63;;;13.09;100.00
63006;BME280;53704;52.532;6.426;2024-03-02T12:46:03;100140.53;;;13.21;100.00
63006;BME280;53704;52.532;6.426;2024-03-02T12:48:28;100146.56;;;13.23;100.00
63006;BME280;53704;52.532;6.426;2024-03-02T12:50:54;100144.34;;;12.77;100.00
63006;BME280;53704;52.532;6.426;2024-03-02T12:53:24;100140.88;;;12.83;100.00
63006;BME280;53704;52.532;6.426;2024-03-02T12:55:50;100142.81;;;12.46;100.00
63006;BME280;53704;52.532;6.426;2024-03-02T12:58:23;100140.56;;;12.71;100.00